sensor_id;sensor_type;location;lat;lon;timestamp;pressure;altitude;pressure_sealevel;temperature;humidity
60974;BME280;46846;51.528;5.076;2023-08-08T00:01:24;100963.47;;;15.87;62.49
60974;BME280;46846;51.528;5.076;2023-08-08T00:03:49;100955.56;;;15.84;62.60
60974;BME280;46846;51.528;5.076;2023-08-08T00:06:15;100950.38;;;15.81;62.45
60974;BME280;46846;51.528;5.076;2023-08-08T00:08:40;100952.13;;;15.82;62.49
60974;BME280;46846;51.528;5.076;2023-08-08T00:11:06;100955.75;;;15.81;62.46
60974;BME280;46846;51.528;5.076;2023-08-08T00:13:32;100960.25;;;15.80;62.31
60974;BME280;46846;51.528;5.076;2023-08-08T00:15:57;100956.72;;;15.80;62.46
60974;BME280;46846;51.528;5.076;2023-08-08T00:18:22;100952.25;;;15.79;62.32
60974;BME280;46846;51.528;5.076;2023-08-08T00:20:48;100941.00;;;15.72;62.71
60974;BME280;46846;51.528;5.076;2023-08-08T00:23:13;100944.59;;;15.72;62.55
60974;BME280;46846;51.528;5.076;2023-08-08T00:25:39;100939.38;;;15.69;62.45
60974;BME280;46846;51.528;5.076;2023-08-08T00:28:04;100947.25;;;15.72;62.50
60974;BME280;46846;51.528;5.076;2023-08-08T00:30:30;100947.25;;;15.72;62.45
60974;BME280;46846;51.528;5.076;2023-08-08T00:32:55;100948.38;;;15.68;62.59
60974;BME280;46846;51.528;5.076;2023-08-08T00:35:21;100947.59;;;15.66;62.43
60974;BME280;46846;51.528;5.076;2023-08-08T00:37:46;100947.59;;;15.66;62.47
60974;BME280;46846;51.528;5.076;2023-08-08T00:40:11;100948.63;;;15.64;62.54
60974;BME280;46846;51.528;5.076;2023-08-08T00:42:37;100941.53;;;15.63;62.59
60974;BME280;46846;51.528;5.076;2023-08-08T00:45:02;100945.16;;;15.62;62.70
60974;BME280;46846;51.528;5.076;2023-08-08T00:47:32;100941.59;;;15.61;62.45
60974;BME280;46846;51.528;5.076;2023-08-08T00:49:58;100936.16;;;15.63;62.62
60974;BME280;46846;51.528;5.076;2023-08-08T00:52:24;100934.50;;;15.60;62.45
60974;BME280;46846;51.528;5.076;2023-08-08T00:54:51;100930.78;;;15.63;62.30
60974;BME280;46846;51.528;5.076;2023-08-08T00:57:17;100937.19;;;15.60;62.28
60974;BME280;46846;51.528;5.076;2023-08-08T00:59:43;100943.59;;;15.57;62.55
60974;BME280;46846;51.528;5.076;2023-08-08T01:02:08;100933.72;;;15.58;62.66
60974;BME280;46846;51.528;5.076;2023-08-08T01:04:34;100940.81;;;15.59;62.56
60974;BME280;46846;51.528;5.076;2023-08-08T01:07:13;100934.59;;;15.58;61.94
60974;BME280;46846;51.528;5.076;2023-08-08T01:10:12;100928.50;;;15.55;62.26
60974;BME280;46846;51.528;5.076;2023-08-08T01:12:52;100919.69;;;15.53;62.46
60974;BME280;46846;51.528;5.076;2023-08-08T01:15:19;100924.28;;;15.51;62.36
60974;BME280;46846;51.528;5.076;2023-08-08T01:17:46;100918.81;;;15.52;62.40
60974;BME280;46846;51.528;5.076;2023-08-08T01:20:14;100931.63;;;15.47;62.51
60974;BME280;46846;51.528;5.076;2023-08-08T01:22:53;100923.59;;;15.47;62.32
60974;BME280;46846;51.528;5.076;2023-08-08T01:25:21;100923.59;;;15.47;62.59
60974;BME280;46846;51.528;5.076;2023-08-08T01:27:46;100928.25;;;15.43;62.62
60974;BME280;46846;51.528;5.076;2023-08-08T01:30:12;100928.00;;;15.48;62.75
60974;BME280;46846;51.528;5.076;2023-08-08T01:32:37;100923.66;;;15.45;62.66
60974;BME280;46846;51.528;5.076;2023-08-08T01:35:03;100914.59;;;15.48;62.34
60974;BME280;46846;51.528;5.076;2023-08-08T01:37:29;100919.50;;;15.40;62.82
60974;BME280;46846;51.528;5.076;2023-08-08T01:39:59;100915.69;;;15.44;62.37
60974;BME280;46846;51.528;5.076;2023-08-08T01:42:25;100917.53;;;15.43;62.65
60974;BME280;46846;51.528;5.076;2023-08-08T01:44:53;100912.31;;;15.40;62.84
60974;BME280;46846;51.528;5.076;2023-08-08T01:47:18;100905.22;;;15.39;62.71
60974;BME280;46846;51.528;5.076;2023-08-08T01:49:44;100902.59;;;15.38;62.90
60974;BME280;46846;51.528;5.076;2023-08-08T01:52:09;100906.25;;;15.37;62.80
60974;BME280;46846;51.528;5.076;2023-08-08T01:54:35;100907.19;;;15.36;62.73
60974;BME280;46846;51.528;5.076;2023-08-08T01:57:00;100913.56;;;15.33;62.63
60974;BME280;46846;51.528;5.076;2023-08-08T01:59:26;100905.63;;;15.31;62.63
60974;BME280;46846;51.528;5.076;2023-08-08T02:01:51;100913.44;;;15.36;63.04
60974;BME280;46846;51.528;5.076;2023-08-08T02:04:16;100908.31;;;15.31;62.83
60974;BME280;46846;51.528;5.076;2023-08-08T02:06:42;100906.75;;;15.27;62.72
60974;BME280;46846;51.528;5.076;2023-08-08T02:09:07;100902.25;;;15.28;62.93
60974;BME280;46846;51.528;5.076;2023-08-08T02:11:32;100902.16;;;15.29;62.86
60974;BME280;46846;51.528;5.076;2023-08-08T02:13:58;100906.66;;;15.29;62.99
60974;BME280;46846;51.528;5.076;2023-08-08T02:16:23;100903.28;;;15.25;62.79
60974;BME280;46846;51.528;5.076;2023-08-08T02:18:49;100897.22;;;15.22;63.10
60974;BME280;46846;51.528;5.076;2023-08-08T02:21:14;100901.81;;;15.20;63.11
60974;BME280;46846;51.528;5.076;2023-08-08T02:23:41;100898.25;;;15.19;63.06
60974;BME280;46846;51.528;5.076;2023-08-08T02:26:06;100903.59;;;15.19;63.09
60974;BME280;46846;51.528;5.076;2023-08-08T02:28:32;100898.31;;;15.17;63.42
60974;BME280;46846;51.528;5.076;2023-08-08T02:30:57;100890.38;;;15.16;63.00
60974;BME280;46846;51.528;5.076;2023-08-08T02:33:23;100884.91;;;15.17;63.24
60974;BME280;46846;51.528;5.076;2023-08-08T02:35:48;100881.38;;;15.17;63.35
60974;BME280;46846;51.528;5.076;2023-08-08T02:38:13;100878.78;;;15.15;63.34
60974;BME280;46846;51.528;5.076;2023-08-08T02:40:39;100875.31;;;15.13;63.45
60974;BME280;46846;51.528;5.076;2023-08-08T02:43:04;100884.91;;;15.17;63.62
60974;BME280;46846;51.528;5.076;2023-08-08T02:45:30;100875.31;;;15.13;63.35
60974;BME280;46846;51.528;5.076;2023-08-08T02:47:55;100878.84;;;15.14;63.58
60974;BME280;46846;51.528;5.076;2023-08-08T02:50:21;100885.22;;;15.11;63.27
60974;BME280;46846;51.528;5.076;2023-08-08T02:52:46;100880.81;;;15.10;63.37
60974;BME280;46846;51.528;5.076;2023-08-08T02:55:12;100873.72;;;15.09;63.38
60974;BME280;46846;51.528;5.076;2023-08-08T02:57:37;100866.66;;;15.08;63.39
60974;BME280;46846;51.528;5.076;2023-08-08T03:00:03;100866.66;;;15.08;63.53
60974;BME280;46846;51.528;5.076;2023-08-08T03:02:29;100873.81;;;15.08;63.30
60974;BME280;46846;51.528;5.076;2023-08-08T03:04:55;100868.00;;;14.99;63.30
60974;BME280;46846;51.528;5.076;2023-08-08T03:07:20;100876.03;;;14.99;63.50
60974;BME280;46846;51.528;5.076;2023-08-08T03:09:45;100868.88;;;15.00;64.21
60974;BME280;46846;51.528;5.076;2023-08-08T03:12:11;100868.00;;;14.99;63.70
60974;BME280;46846;51.528;5.076;2023-08-08T03:14:36;100868.09;;;14.98;63.48
60974;BME280;46846;51.528;5.076;2023-08-08T03:17:02;100868.09;;;14.98;63.83
60974;BME280;46846;51.528;5.076;2023-08-08T03:19:27;100868.16;;;14.96;63.46
60974;BME280;46846;51.528;5.076;2023-08-08T03:21:53;100869.00;;;14.97;63.33
60974;BME280;46846;51.528;5.076;2023-08-08T03:24:18;100868.22;;;14.95;63.46
60974;BME280;46846;51.528;5.076;2023-08-08T03:26:43;100868.16;;;14.96;63.84
60974;BME280;46846;51.528;5.076;2023-08-08T03:29:09;100869.97;;;14.96;63.83
60974;BME280;46846;51.528;5.076;2023-08-08T03:31:36;100861.94;;;14.96;64.12
60974;BME280;46846;51.528;5.076;2023-08-08T03:34:01;100865.63;;;14.93;63.80
60974;BME280;46846;51.528;5.076;2023-08-08T03:36:27;100865.72;;;14.92;63.83
60974;BME280;46846;51.528;5.076;2023-08-08T03:38:52;100863.81;;;14.94;63.88
60974;BME280;46846;51.528;5.076;2023-08-08T03:41:18;100866.44;;;14.95;63.58
60974;BME280;46846;51.528;5.076;2023-08-08T03:43:43;100862.94;;;14.93;63.65
60974;BME280;46846;51.528;5.076;2023-08-08T03:46:08;100858.88;;;14.86;63.85
60974;BME280;46846;51.528;5.076;2023-08-08T03:48:34;100861.63;;;14.84;63.98
60974;BME280;46846;51.528;5.076;2023-08-08T03:50:59;100849.81;;;14.88;64.06
60974;BME280;46846;51.528;5.076;2023-08-08T03:53:25;100854.31;;;14.88;63.97
60974;BME280;46846;51.528;5.076;2023-08-08T03:55:50;100849.09;;;14.85;63.79
60974;BME280;46846;51.528;5.076;2023-08-08T03:58:16;100855.50;;;14.82;63.91
60974;BME280;46846;51.528;5.076;2023-08-08T04:00:42;100856.41;;;14.81;63.97
60974;BME280;46846;51.528;5.076;2023-08-08T04:03:13;100857.31;;;14.82;63.90
60974;BME280;46846;51.528;5.076;2023-08-08T04:05:40;100859.09;;;14.81;63.79
60974;BME280;46846;51.528;5.076;2023-08-08T04:08:06;100857.31;;;14.82;64.13
60974;BME280;46846;51.528;5.076;2023-08-08T04:10:31;100850.34;;;14.77;63.78
60974;BME280;46846;51.528;5.076;2023-08-08T04:12:56;100856.66;;;14.76;64.00
60974;BME280;46846;51.528;5.076;2023-08-08T04:15:22;100854.94;;;14.75;64.02
60974;BME280;46846;51.528;5.076;2023-08-08T04:17:47;100859.44;;;14.75;63.84
60974;BME280;46846;51.528;5.076;2023-08-08T04:20:13;100844.44;;;14.71;64.09
60974;BME280;46846;51.528;5.076;2023-08-08T04:22:39;100846.22;;;14.70;64.30
60974;BME280;46846;51.528;5.076;2023-08-08T04:25:05;100844.69;;;14.66;64.41
60974;BME280;46846;51.528;5.076;2023-08-08T04:27:31;100845.38;;;14.70;64.31
60974;BME280;46846;51.528;5.076;2023-08-08T04:29:56;100844.75;;;14.65;64.22
60974;BME280;46846;51.528;5.076;2023-08-08T04:32:22;100858.13;;;14.65;64.34
60974;BME280;46846;51.528;5.076;2023-08-08T04:34:47;100855.22;;;14.69;64.27
60974;BME280;46846;51.528;5.076;2023-08-08T04:37:12;100852.47;;;14.71;64.39
60974;BME280;46846;51.528;5.076;2023-08-08T04:39:38;100853.72;;;14.63;64.18
60974;BME280;46846;51.528;5.076;2023-08-08T04:42:03;100860.03;;;14.62;64.29
60974;BME280;46846;51.528;5.076;2023-08-08T04:44:29;100858.31;;;14.61;64.14
60974;BME280;46846;51.528;5.076;2023-08-08T04:46:55;100857.44;;;14.61;64.37
60974;BME280;46846;51.528;5.076;2023-08-08T04:49:21;100862.66;;;14.64;64.45
60974;BME280;46846;51.528;5.076;2023-08-08T04:51:46;100860.03;;;14.62;64.18
60974;BME280;46846;51.528;5.076;2023-08-08T04:54:12;100857.44;;;14.61;64.48
60974;BME280;46846;51.528;5.076;2023-08-08T04:56:37;100853.09;;;14.58;64.29
60974;BME280;46846;51.528;5.076;2023-08-08T04:59:03;100858.44;;;14.58;64.19
60974;BME280;46846;51.528;5.076;2023-08-08T05:01:28;100854.75;;;14.61;64.12
60974;BME280;46846;51.528;5.076;2023-08-08T05:03:53;100858.38;;;14.60;64.68
60974;BME280;46846;51.528;5.076;2023-08-08T05:06:19;100860.50;;;14.53;64.33
60974;BME280;46846;51.528;5.076;2023-08-08T05:08:44;100860.28;;;14.58;64.30
60974;BME280;46846;51.528;5.076;2023-08-08T05:11:10;100861.22;;;14.57;64.45
60974;BME280;46846;51.528;5.076;2023-08-08T05:13:35;100861.22;;;14.57;64.15
60974;BME280;46846;51.528;5.076;2023-08-08T05:16:00;100864.75;;;14.57;64.41
60974;BME280;46846;51.528;5.076;2023-08-08T05:18:26;100862.25;;;14.54;64.23
60974;BME280;46846;51.528;5.076;2023-08-08T05:20:51;100860.50;;;14.53;64.59
60974;BME280;46846;51.528;5.076;2023-08-08T05:23:17;100862.31;;;14.53;64.76
60974;BME280;46846;51.528;5.076;2023-08-08T05:25:42;100864.91;;;14.54;64.90
60974;BME280;46846;51.528;5.076;2023-08-08T05:28:07;100862.25;;;14.54;65.00
60974;BME280;46846;51.528;5.076;2023-08-08T05:30:33;100868.44;;;14.55;65.05
60974;BME280;46846;51.528;5.076;2023-08-08T05:32:59;100870.41;;;14.51;64.56
60974;BME280;46846;51.528;5.076;2023-08-08T05:35:24;100873.97;;;14.52;64.66
60974;BME280;46846;51.528;5.076;2023-08-08T05:37:49;100873.66;;;14.58;65.01
60974;BME280;46846;51.528;5.076;2023-08-08T05:40:15;100869.16;;;14.58;64.49
60974;BME280;46846;51.528;5.076;2023-08-08T05:42:40;100873.66;;;14.58;64.76
60974;BME280;46846;51.528;5.076;2023-08-08T05:45:06;100873.66;;;14.58;64.48
60974;BME280;46846;51.528;5.076;2023-08-08T05:47:32;100864.81;;;14.56;64.65
60974;BME280;46846;51.528;5.076;2023-08-08T05:49:57;100859.41;;;14.57;64.76
60974;BME280;46846;51.528;5.076;2023-08-08T05:52:23;100863.97;;;14.55;64.54
60974;BME280;46846;51.528;5.076;2023-08-08T05:54:48;100865.88;;;14.53;64.41
60974;BME280;46846;51.528;5.076;2023-08-08T05:57:14;100861.28;;;14.55;64.82
60974;BME280;46846;51.528;5.076;2023-08-08T05:59:39;100863.66;;;14.61;65.33
60974;BME280;46846;51.528;5.076;2023-08-08T06:02:04;100867.59;;;14.54;65.85
60974;BME280;46846;51.528;5.076;2023-08-08T06:04:30;100862.38;;;14.51;65.48
60974;BME280;46846;51.528;5.076;2023-08-08T06:06:55;100873.25;;;14.48;65.34
60974;BME280;46846;51.528;5.076;2023-08-08T06:09:21;100873.91;;;14.53;65.96
60974;BME280;46846;51.528;5.076;2023-08-08T06:11:47;100878.13;;;14.57;65.51
60974;BME280;46846;51.528;5.076;2023-08-08T06:14:13;100872.78;;;14.57;65.66
60974;BME280;46846;51.528;5.076;2023-08-08T06:16:38;100873.50;;;14.61;65.59
60974;BME280;46846;51.528;5.076;2023-08-08T06:19:04;100878.91;;;14.59;65.13
60974;BME280;46846;51.528;5.076;2023-08-08T06:21:29;100878.00;;;14.60;65.26
60974;BME280;46846;51.528;5.076;2023-08-08T06:23:54;100876.81;;;14.66;65.22
60974;BME280;46846;51.528;5.076;2023-08-08T06:26:23;100883.19;;;14.63;64.86
60974;BME280;46846;51.528;5.076;2023-08-08T06:28:49;100889.56;;;14.61;64.78
60974;BME280;46846;51.528;5.076;2023-08-08T06:31:16;100879.56;;;14.65;65.23
60974;BME280;46846;51.528;5.076;2023-08-08T06:33:42;100884.84;;;14.66;65.03
60974;BME280;46846;51.528;5.076;2023-08-08T06:36:08;100880.13;;;14.71;64.91
60974;BME280;46846;51.528;5.076;2023-08-08T06:38:33;100888.06;;;14.73;65.30
60974;BME280;46846;51.528;5.076;2023-08-08T06:41:02;100882.09;;;14.68;64.90
60974;BME280;46846;51.528;5.076;2023-08-08T06:43:28;100889.03;;;14.72;65.05
60974;BME280;46846;51.528;5.076;2023-08-08T06:45:53;100882.09;;;14.68;65.21
60974;BME280;46846;51.528;5.076;2023-08-08T06:48:19;100880.94;;;14.73;65.10
60974;BME280;46846;51.528;5.076;2023-08-08T06:50:45;100877.34;;;14.73;65.43
60974;BME280;46846;51.528;5.076;2023-08-08T06:53:10;100872.59;;;14.80;65.13
60974;BME280;46846;51.528;5.076;2023-08-08T06:55:35;100883.13;;;14.83;65.35
60974;BME280;46846;51.528;5.076;2023-08-08T06:58:01;100873.31;;;14.83;65.37
60974;BME280;46846;51.528;5.076;2023-08-08T07:00:26;100884.97;;;14.82;65.09
60974;BME280;46846;51.528;5.076;2023-08-08T07:02:53;100884.56;;;14.90;66.71
60974;BME280;46846;51.528;5.076;2023-08-08T07:05:18;100878.91;;;14.79;65.07
60974;BME280;46846;51.528;5.076;2023-08-08T07:07:47;100881.94;;;14.88;65.55
60974;BME280;46846;51.528;5.076;2023-08-08T07:10:12;100890.09;;;14.87;65.58
60974;BME280;46846;51.528;5.076;2023-08-08T07:12:38;100889.22;;;14.86;65.44
60974;BME280;46846;51.528;5.076;2023-08-08T07:15:06;100890.78;;;14.90;65.64
60974;BME280;46846;51.528;5.076;2023-08-08T07:17:32;100891.72;;;14.89;65.61
60974;BME280;46846;51.528;5.076;2023-08-08T07:19:58;100882.75;;;14.90;65.55
60974;BME280;46846;51.528;5.076;2023-08-08T07:22:23;100888.19;;;14.89;65.61
60974;BME280;46846;51.528;5.076;2023-08-08T07:24:49;100880.63;;;14.97;65.76
60974;BME280;46846;51.528;5.076;2023-08-08T07:27:14;100887.78;;;14.97;65.64
60974;BME280;46846;51.528;5.076;2023-08-08T07:29:39;100884.16;;;14.98;66.16
60974;BME280;46846;51.528;5.076;2023-08-08T07:32:05;100877.69;;;15.02;65.71
60974;BME280;46846;51.528;5.076;2023-08-08T07:34:31;100875.88;;;15.02;65.91
60974;BME280;46846;51.528;5.076;2023-08-08T07:36:58;100880.94;;;15.09;65.95
60974;BME280;46846;51.528;5.076;2023-08-08T07:39:23;100882.56;;;15.11;66.10
60974;BME280;46846;51.528;5.076;2023-08-08T07:41:49;100877.03;;;15.14;66.14
60974;BME280;46846;51.528;5.076;2023-08-08T07:44:15;100877.03;;;15.14;65.83
60974;BME280;46846;51.528;5.076;2023-08-08T07:46:40;100869.63;;;15.20;65.91
60974;BME280;46846;51.528;5.076;2023-08-08T07:49:06;100877.56;;;15.21;65.91
60974;BME280;46846;51.528;5.076;2023-08-08T07:51:31;100873.88;;;15.24;65.92
60974;BME280;46846;51.528;5.076;2023-08-08T07:53:58;100881.66;;;15.28;65.94
60974;BME280;46846;51.528;5.076;2023-08-08T07:56:23;100879.69;;;15.32;66.08
60974;BME280;46846;51.528;5.076;2023-08-08T07:58:48;100885.03;;;15.32;66.32
60974;BME280;46846;51.528;5.076;2023-08-08T08:01:14;100883.13;;;15.34;65.89
60974;BME280;46846;51.528;5.076;2023-08-08T08:03:39;100880.22;;;15.39;65.74
60974;BME280;46846;51.528;5.076;2023-08-08T08:06:05;100888.16;;;15.40;66.19
60974;BME280;46846;51.528;5.076;2023-08-08T08:08:31;100886.44;;;15.39;65.99
60974;BME280;46846;51.528;5.076;2023-08-08T08:10:56;100883.75;;;15.39;66.02
60974;BME280;46846;51.528;5.076;2023-08-08T08:13:21;100888.16;;;15.40;66.04
60974;BME280;46846;51.528;5.076;2023-08-08T08:15:47;100879.28;;;15.40;66.07
60974;BME280;46846;51.528;5.076;2023-08-08T08:18:13;100874.44;;;15.47;65.95
60974;BME280;46846;51.528;5.076;2023-08-08T08:20:39;100884.53;;;15.41;66.20
60974;BME280;46846;51.528;5.076;2023-08-08T08:23:04;100882.47;;;15.47;66.09
60974;BME280;46846;51.528;5.076;2023-08-08T08:25:30;100882.47;;;15.47;66.16
60974;BME280;46846;51.528;5.076;2023-08-08T08:27:57;100885.59;;;15.55;65.99
60974;BME280;46846;51.528;5.076;2023-08-08T08:30:23;100878.19;;;15.60;65.54
60974;BME280;46846;51.528;5.076;2023-08-08T08:32:50;100885.28;;;15.61;65.94
60974;BME280;46846;51.528;5.076;2023-08-08T08:35:17;100884.16;;;15.65;65.84
60974;BME280;46846;51.528;5.076;2023-08-08T08:37:42;100891.78;;;15.57;66.24
60974;BME280;46846;51.528;5.076;2023-08-08T08:40:08;100885.28;;;15.61;66.00
60974;BME280;46846;51.528;5.076;2023-08-08T08:42:34;100885.78;;;15.68;66.01
60974;BME280;46846;51.528;5.076;2023-08-08T08:45:02;100881.50;;;15.65;66.13
60974;BME280;46846;51.528;5.076;2023-08-08T08:47:30;100887.44;;;15.70;66.05
60974;BME280;46846;51.528;5.076;2023-08-08T08:49:57;100885.00;;;15.66;66.25
60974;BME280;46846;51.528;5.076;2023-08-08T08:52:23;100882.94;;;15.71;66.18
60974;BME280;46846;51.528;5.076;2023-08-08T08:54:50;100885.44;;;15.74;66.00
60974;BME280;46846;51.528;5.076;2023-08-08T08:57:16;100896.09;;;15.76;65.81
60974;BME280;46846;51.528;5.076;2023-08-08T08:59:41;100895.00;;;15.80;65.91
60974;BME280;46846;51.528;5.076;2023-08-08T09:02:07;100893.25;;;15.79;66.06
60974;BME280;46846;51.528;5.076;2023-08-08T09:04:33;100894.31;;;15.76;66.24
60974;BME280;46846;51.528;5.076;2023-08-08T09:07:00;100889.88;;;15.75;66.15
60974;BME280;46846;51.528;5.076;2023-08-08T09:09:26;100892.47;;;15.77;66.30
60974;BME280;46846;51.528;5.076;2023-08-08T09:11:54;100889.63;;;15.80;65.96
60974;BME280;46846;51.528;5.076;2023-08-08T09:14:24;100900.44;;;15.78;65.96
60974;BME280;46846;51.528;5.076;2023-08-08T09:16:51;100898.97;;;15.89;66.07
60974;BME280;46846;51.528;5.076;2023-08-08T09:19:19;100897.31;;;15.86;66.02
60974;BME280;46846;51.528;5.076;2023-08-08T09:21:45;100897.50;;;15.83;66.10
60974;BME280;46846;51.528;5.076;2023-08-08T09:24:10;100901.75;;;15.87;66.11
60974;BME280;46846;51.528;5.076;2023-08-08T09:26:36;100898.13;;;15.88;66.15
60974;BME280;46846;51.528;5.076;2023-08-08T09:29:04;100896.38;;;15.87;66.14
60974;BME280;46846;51.528;5.076;2023-08-08T09:31:30;100898.84;;;15.92;66.08
60974;BME280;46846;51.528;5.076;2023-08-08T09:34:00;100896.75;;;15.97;65.73
60974;BME280;46846;51.528;5.076;2023-08-08T09:36:26;100895.91;;;15.96;65.46
60974;BME280;46846;51.528;5.076;2023-08-08T09:38:53;100896.59;;;16.00;65.48
60974;BME280;46846;51.528;5.076;2023-08-08T09:41:19;100904.72;;;15.98;65.65
60974;BME280;46846;51.528;5.076;2023-08-08T09:43:47;100893.09;;;15.98;65.91
60974;BME280;46846;51.528;5.076;2023-08-08T09:46:13;100901.97;;;16.00;65.50
60974;BME280;46846;51.528;5.076;2023-08-08T09:48:41;100893.09;;;15.98;65.98
60974;BME280;46846;51.528;5.076;2023-08-08T09:51:07;100897.97;;;16.07;65.20
60974;BME280;46846;51.528;5.076;2023-08-08T09:53:33;100889.47;;;16.15;65.44
60974;BME280;46846;51.528;5.076;2023-08-08T09:56:00;100891.19;;;16.16;65.53
60974;BME280;46846;51.528;5.076;2023-08-08T09:58:26;100885.75;;;16.18;65.57
60974;BME280;46846;51.528;5.076;2023-08-08T10:00:52;100889.03;;;16.23;65.38
60974;BME280;46846;51.528;5.076;2023-08-08T10:03:18;100891.53;;;16.26;65.31
60974;BME280;46846;51.528;5.076;2023-08-08T10:05:44;100888.28;;;16.21;64.91
60974;BME280;46846;51.528;5.076;2023-08-08T10:08:10;100893.94;;;16.31;65.32
60974;BME280;46846;51.528;5.076;2023-08-08T10:10:36;100897.25;;;16.36;65.13
60974;BME280;46846;51.528;5.076;2023-08-08T10:13:02;100895.53;;;16.35;65.42
60974;BME280;46846;51.528;5.076;2023-08-08T10:15:28;100893.88;;;16.32;65.62
60974;BME280;46846;51.528;5.076;2023-08-08T10:17:56;100895.53;;;16.35;65.52
60974;BME280;46846;51.528;5.076;2023-08-08T10:20:24;100901.38;;;16.42;65.48
60974;BME280;46846;51.528;5.076;2023-08-08T10:22:52;100910.41;;;16.40;65.39
60974;BME280;46846;51.528;5.076;2023-08-08T10:25:27;100910.25;;;16.44;65.64
60974;BME280;46846;51.528;5.076;2023-08-08T10:30:28;100905.72;;;16.44;65.57
60974;BME280;46846;51.528;5.076;2023-08-08T10:32:56;100904.41;;;16.51;65.61
60974;BME280;46846;51.528;5.076;2023-08-08T10:35:22;100899.03;;;16.51;65.59
60974;BME280;46846;51.528;5.076;2023-08-08T10:37:57;100896.25;;;16.53;65.69
60974;BME280;46846;51.528;5.076;2023-08-08T10:40:23;100900.25;;;16.62;64.97
60974;BME280;46846;51.528;5.076;2023-08-08T10:42:48;100894.75;;;16.63;65.77
60974;BME280;46846;51.528;5.076;2023-08-08T10:45:15;100892.66;;;16.68;65.18
60974;BME280;46846;51.528;5.076;2023-08-08T10:47:42;100901.69;;;16.67;65.52
60974;BME280;46846;51.528;5.076;2023-08-08T11:00:19;100891.03;;;16.66;65.63
60974;BME280;46846;51.528;5.076;2023-08-08T11:02:44;100888.16;;;16.69;65.72
60974;BME280;46846;51.528;5.076;2023-08-08T11:05:10;100882.59;;;16.72;65.65
60974;BME280;46846;51.528;5.076;2023-08-08T11:07:36;100878.97;;;16.73;65.54
60974;BME280;46846;51.528;5.076;2023-08-08T11:10:03;100881.56;;;16.75;65.48
60974;BME280;46846;51.528;5.076;2023-08-08T11:12:29;100885.00;;;16.77;65.60
60974;BME280;46846;51.528;5.076;2023-08-08T11:14:54;100894.63;;;16.81;65.41
60974;BME280;46846;51.528;5.076;2023-08-08T11:17:20;100888.19;;;16.84;65.32
60974;BME280;46846;51.528;5.076;2023-08-08T11:19:45;100879.06;;;16.86;65.21
60974;BME280;46846;51.528;5.076;2023-08-08T11:22:11;100879.88;;;16.88;65.35
60974;BME280;46846;51.528;5.076;2023-08-08T11:24:37;100879.06;;;16.86;65.07
60974;BME280;46846;51.528;5.076;2023-08-08T11:27:02;100864.97;;;16.83;65.61
60974;BME280;46846;51.528;5.076;2023-08-08T11:29:27;100873.81;;;16.85;65.33
60974;BME280;46846;51.528;5.076;2023-08-08T11:31:57;100868.31;;;16.86;65.26
60974;BME280;46846;51.528;5.076;2023-08-08T11:34:24;100874.22;;;16.93;64.23
60974;BME280;46846;51.528;5.076;2023-08-08T11:36:50;100871.94;;;17.01;64.29
60974;BME280;46846;51.528;5.076;2023-08-08T11:39:16;100873.06;;;16.97;64.89
60974;BME280;46846;51.528;5.076;2023-08-08T11:41:42;100878.16;;;17.02;64.55
60974;BME280;46846;51.528;5.076;2023-08-08T11:44:08;100884.22;;;17.05;64.49
60974;BME280;46846;51.528;5.076;2023-08-08T11:46:33;100880.13;;;17.14;62.37
60974;BME280;46846;51.528;5.076;2023-08-08T11:49:06;100886.81;;;17.07;64.58
60974;BME280;46846;51.528;5.076;2023-08-08T11:51:33;100886.81;;;17.07;64.12
60974;BME280;46846;51.528;5.076;2023-08-08T11:54:01;100880.03;;;17.16;64.30
60974;BME280;46846;51.528;5.076;2023-08-08T11:56:27;100885.13;;;17.20;64.01
60974;BME280;46846;51.528;5.076;2023-08-08T11:58:54;100893.94;;;17.22;64.00
60974;BME280;46846;51.528;5.076;2023-08-08T12:01:25;100883.09;;;17.24;64.04
60974;BME280;46846;51.528;5.076;2023-08-08T12:03:51;100883.56;;;17.31;63.60
60974;BME280;46846;51.528;5.076;2023-08-08T12:06:16;100878.31;;;17.15;64.29
60974;BME280;46846;51.528;5.076;2023-08-08T12:08:44;100882.22;;;17.24;63.94
60974;BME280;46846;51.528;5.076;2023-08-08T12:11:11;100882.22;;;17.24;63.70
60974;BME280;46846;51.528;5.076;2023-08-08T12:13:37;100878.41;;;17.28;63.79
60974;BME280;46846;51.528;5.076;2023-08-08T12:16:05;100871.38;;;17.40;60.36
60974;BME280;46846;51.528;5.076;2023-08-08T12:18:32;100865.34;;;17.36;62.83
60974;BME280;46846;51.528;5.076;2023-08-08T12:20:57;100873.59;;;17.33;62.62
60974;BME280;46846;51.528;5.076;2023-08-08T12:23:24;100876.94;;;17.36;63.31
60974;BME280;46846;51.528;5.076;2023-08-08T12:25:50;100866.09;;;17.38;63.05
60974;BME280;46846;51.528;5.076;2023-08-08T12:28:15;100868.09;;;17.49;60.84
60974;BME280;46846;51.528;5.076;2023-08-08T12:30:41;100867.94;;;17.52;62.56
60974;BME280;46846;51.528;5.076;2023-08-08T12:33:06;100878.88;;;17.49;62.95
60974;BME280;46846;51.528;5.076;2023-08-08T12:35:32;100857.34;;;17.49;62.49
60974;BME280;46846;51.528;5.076;2023-08-08T12:37:57;100863.09;;;17.57;62.04
60974;BME280;46846;51.528;5.076;2023-08-08T12:40:23;100859.25;;;17.61;62.35
60974;BME280;46846;51.528;5.076;2023-08-08T12:42:50;100857.25;;;17.65;62.16
60974;BME280;46846;51.528;5.076;2023-08-08T12:45:16;100864.44;;;17.50;63.34
60974;BME280;46846;51.528;5.076;2023-08-08T12:47:43;100859.75;;;17.54;62.71
60974;BME280;46846;51.528;5.076;2023-08-08T12:50:09;100862.03;;;17.60;62.80
60974;BME280;46846;51.528;5.076;2023-08-08T12:52:35;100863.78;;;17.61;61.98
60974;BME280;46846;51.528;5.076;2023-08-08T12:55:01;100865.31;;;17.65;62.19
60974;BME280;46846;51.528;5.076;2023-08-08T12:57:28;100858.66;;;17.71;62.19